sensor_id;sensor_type;location;lat;lon;timestamp;P1;durP1;ratioP1;P2;durP2;ratioP2
2602;SDS011;1311;47.966;7.958;2022-07-29T00:01:25;6.10;;;5.50;;
2602;SDS011;1311;47.966;7.958;2022-07-29T00:03:52;8.93;;;5.93;;
2602;SDS011;1311;47.966;7.958;2022-07-29T00:06:19;6.30;;;5.80;;
2602;SDS011;1311;47.966;7.958;2022-07-29T00:08:46;6.00;;;5.27;;
2602;SDS011;1311;47.966;7.958;2022-07-29T00:11:14;5.63;;;5.13;;
2602;SDS011;1311;47.966;7.958;2022-07-29T00:13:40;6.33;;;5.73;;
2602;SDS011;1311;47.966;7.958;2022-07-29T00:16:07;5.80;;;5.30;;
2602;SDS011;1311;47.966;7.958;2022-07-29T00:18:34;5.57;;;5.07;;
2602;SDS011;1311;47.966;7.958;2022-07-29T00:21:01;6.43;;;5.93;;
2602;SDS011;1311;47.966;7.958;2022-07-29T00:23:28;6.63;;;6.03;;
2602;SDS011;1311;47.966;7.958;2022-07-29T00:25:55;6.00;;;5.50;;
2602;SDS011;1311;47.966;7.958;2022-07-29T00:28:23;5.77;;;5.17;;
2602;SDS011;1311;47.966;7.958;2022-07-29T00:30:49;6.10;;;5.33;;
2602;SDS011;1311;47.966;7.958;2022-07-29T00:33:16;6.00;;;5.40;;
2602;SDS011;1311;47.966;7.958;2022-07-29T00:35:43;6.17;;;5.57;;
2602;SDS011;1311;47.966;7.958;2022-07-29T00:38:09;5.70;;;5.20;;
2602;SDS011;1311;47.966;7.958;2022-07-29T00:40:36;6.67;;;5.73;;
2602;SDS011;1311;47.966;7.958;2022-07-29T00:43:03;6.13;;;5.63;;
2602;SDS011;1311;47.966;7.958;2022-07-29T00:45:31;5.90;;;5.30;;
2602;SDS011;1311;47.966;7.958;2022-07-29T00:47:58;5.83;;;5.33;;
2602;SDS011;1311;47.966;7.958;2022-07-29T00:50:25;6.50;;;6.00;;
2602;SDS011;1311;47.966;7.958;2022-07-29T00:52:52;7.03;;;5.80;;
2602;SDS011;1311;47.966;7.958;2022-07-29T00:55:19;6.47;;;5.90;;
2602;SDS011;1311;47.966;7.958;2022-07-29T00:57:47;6.70;;;6.13;;
2602;SDS011;1311;47.966;7.958;2022-07-29T01:00:15;6.33;;;5.57;;
2602;SDS011;1311;47.966;7.958;2022-07-29T01:02:45;5.77;;;5.17;;
2602;SDS011;1311;47.966;7.958;2022-07-29T01:05:13;6.03;;;5.50;;
2602;SDS011;1311;47.966;7.958;2022-07-29T01:07:42;9.90;;;5.93;;
2602;SDS011;1311;47.966;7.958;2022-07-29T01:10:10;6.00;;;5.50;;
2602;SDS011;1311;47.966;7.958;2022-07-29T01:12:39;6.80;;;6.20;;
2602;SDS011;1311;47.966;7.958;2022-07-29T01:15:07;6.70;;;6.10;;
2602;SDS011;1311;47.966;7.958;2022-07-29T01:17:36;7.27;;;6.63;;
2602;SDS011;1311;47.966;7.958;2022-07-29T01:20:12;7.10;;;6.50;;
2602;SDS011;1311;47.966;7.958;2022-07-29T01:22:54;6.40;;;5.83;;
2602;SDS011;1311;47.966;7.958;2022-07-29T01:25:54;6.73;;;6.13;;
2602;SDS011;1311;47.966;7.958;2022-07-29T01:31:27;8.73;;;6.77;;
2602;SDS011;1311;47.966;7.958;2022-07-29T01:34:01;6.83;;;6.13;;
2602;SDS011;1311;47.966;7.958;2022-07-29T01:36:31;6.17;;;5.63;;
2602;SDS011;1311;47.966;7.958;2022-07-29T01:39:04;6.10;;;5.50;;
2602;SDS011;1311;47.966;7.958;2022-07-29T01:41:34;7.20;;;5.70;;
2602;SDS011;1311;47.966;7.958;2022-07-29T01:44:10;6.90;;;6.30;;
2602;SDS011;1311;47.966;7.958;2022-07-29T01:46:41;6.73;;;6.10;;
2602;SDS011;1311;47.966;7.958;2022-07-29T01:49:15;7.57;;;5.63;;
2602;SDS011;1311;47.966;7.958;2022-07-29T01:51:46;5.93;;;5.43;;
2602;SDS011;1311;47.966;7.958;2022-07-29T01:54:18;5.57;;;5.07;;
2602;SDS011;1311;47.966;7.958;2022-07-29T01:56:51;6.20;;;5.70;;
2602;SDS011;1311;47.966;7.958;2022-07-29T01:59:21;6.30;;;5.70;;
2602;SDS011;1311;47.966;7.958;2022-07-29T02:01:49;6.90;;;6.20;;
2602;SDS011;1311;47.966;7.958;2022-07-29T02:04:19;6.13;;;5.53;;
2602;SDS011;1311;47.966;7.958;2022-07-29T02:06:47;6.10;;;5.60;;
2602;SDS011;1311;47.966;7.958;2022-07-29T02:09:16;8.10;;;5.60;;
2602;SDS011;1311;47.966;7.958;2022-07-29T02:11:47;5.47;;;4.83;;
2602;SDS011;1311;47.966;7.958;2022-07-29T02:14:17;7.20;;;5.97;;
2602;SDS011;1311;47.966;7.958;2022-07-29T02:16:49;7.20;;;6.20;;
2602;SDS011;1311;47.966;7.958;2022-07-29T02:19:19;6.87;;;6.27;;
2602;SDS011;1311;47.966;7.958;2022-07-29T02:21:49;7.47;;;6.60;;
2602;SDS011;1311;47.966;7.958;2022-07-29T02:24:19;7.40;;;6.70;;
2602;SDS011;1311;47.966;7.958;2022-07-29T02:26:48;6.50;;;5.90;;
2602;SDS011;1311;47.966;7.958;2022-07-29T02:29:17;7.33;;;5.60;;
2602;SDS011;1311;47.966;7.958;2022-07-29T02:31:48;7.83;;;6.67;;
2602;SDS011;1311;47.966;7.958;2022-07-29T02:34:17;6.67;;;6.00;;
2602;SDS011;1311;47.966;7.958;2022-07-29T02:36:45;6.90;;;6.30;;
2602;SDS011;1311;47.966;7.958;2022-07-29T02:39:13;8.40;;;5.60;;
2602;SDS011;1311;47.966;7.958;2022-07-29T02:41:43;6.50;;;5.90;;
2602;SDS011;1311;47.966;7.958;2022-07-29T02:44:13;6.43;;;5.83;;
2602;SDS011;1311;47.966;7.958;2022-07-29T02:46:42;5.90;;;5.40;;
2602;SDS011;1311;47.966;7.958;2022-07-29T02:49:15;5.70;;;5.20;;
2602;SDS011;1311;47.966;7.958;2022-07-29T02:51:45;5.90;;;5.40;;
2602;SDS011;1311;47.966;7.958;2022-07-29T02:54:22;6.57;;;6.00;;
2602;SDS011;1311;47.966;7.958;2022-07-29T02:56:52;7.23;;;6.63;;
2602;SDS011;1311;47.966;7.958;2022-07-29T02:59:22;7.30;;;6.00;;
2602;SDS011;1311;47.966;7.958;2022-07-29T03:01:52;5.97;;;5.47;;
2602;SDS011;1311;47.966;7.958;2022-07-29T03:04:22;6.50;;;5.90;;
2602;SDS011;1311;47.966;7.958;2022-07-29T03:06:53;6.33;;;5.83;;
2602;SDS011;1311;47.966;7.958;2022-07-29T03:09:21;5.97;;;5.20;;
2602;SDS011;1311;47.966;7.958;2022-07-29T03:11:49;7.10;;;6.40;;
2602;SDS011;1311;47.966;7.958;2022-07-29T03:14:16;6.43;;;5.80;;
2602;SDS011;1311;47.966;7.958;2022-07-29T03:16:44;9.67;;;6.30;;
2602;SDS011;1311;47.966;7.958;2022-07-29T03:19:11;7.63;;;6.20;;
2602;SDS011;1311;47.966;7.958;2022-07-29T03:21:40;5.87;;;5.37;;
2602;SDS011;1311;47.966;7.958;2022-07-29T03:24:07;5.83;;;5.33;;
2602;SDS011;1311;47.966;7.958;2022-07-29T03:26:34;5.37;;;4.90;;
2602;SDS011;1311;47.966;7.958;2022-07-29T03:29:02;5.40;;;4.90;;
2602;SDS011;1311;47.966;7.958;2022-07-29T03:31:29;5.80;;;5.30;;
2602;SDS011;1311;47.966;7.958;2022-07-29T03:33:56;6.23;;;5.50;;
2602;SDS011;1311;47.966;7.958;2022-07-29T03:36:23;6.20;;;5.27;;
2602;SDS011;1311;47.966;7.958;2022-07-29T03:38:51;6.67;;;5.73;;
2602;SDS011;1311;47.966;7.958;2022-07-29T03:41:19;5.37;;;4.90;;
2602;SDS011;1311;47.966;7.958;2022-07-29T03:43:50;6.60;;;5.90;;
2602;SDS011;1311;47.966;7.958;2022-07-29T03:46:18;6.30;;;5.70;;
2602;SDS011;1311;47.966;7.958;2022-07-29T03:48:48;7.00;;;5.40;;
2602;SDS011;1311;47.966;7.958;2022-07-29T03:51:21;6.90;;;6.20;;
2602;SDS011;1311;47.966;7.958;2022-07-29T03:53:48;5.47;;;4.97;;
2602;SDS011;1311;47.966;7.958;2022-07-29T03:56:16;6.50;;;5.10;;
2602;SDS011;1311;47.966;7.958;2022-07-29T03:58:45;6.70;;;5.20;;
2602;SDS011;1311;47.966;7.958;2022-07-29T04:01:13;6.00;;;5.40;;
2602;SDS011;1311;47.966;7.958;2022-07-29T04:03:42;7.60;;;5.47;;
2602;SDS011;1311;47.966;7.958;2022-07-29T04:06:10;5.90;;;5.30;;
2602;SDS011;1311;47.966;7.958;2022-07-29T04:08:37;10.03;;;5.43;;
2602;SDS011;1311;47.966;7.958;2022-07-29T04:11:05;6.20;;;5.70;;
2602;SDS011;1311;47.966;7.958;2022-07-29T04:13:33;9.43;;;6.00;;
2602;SDS011;1311;47.966;7.958;2022-07-29T04:16:00;5.90;;;5.40;;
2602;SDS011;1311;47.966;7.958;2022-07-29T04:18:27;6.30;;;5.70;;
2602;SDS011;1311;47.966;7.958;2022-07-29T04:20:54;6.83;;;5.10;;
2602;SDS011;1311;47.966;7.958;2022-07-29T04:23:21;4.70;;;4.30;;
2602;SDS011;1311;47.966;7.958;2022-07-29T04:25:48;7.20;;;6.20;;
2602;SDS011;1311;47.966;7.958;2022-07-29T04:28:15;7.80;;;5.47;;
2602;SDS011;1311;47.966;7.958;2022-07-29T04:30:43;7.00;;;5.67;;
2602;SDS011;1311;47.966;7.958;2022-07-29T04:33:10;5.40;;;4.90;;
2602;SDS011;1311;47.966;7.958;2022-07-29T04:35:37;6.70;;;6.10;;
2602;SDS011;1311;47.966;7.958;2022-07-29T04:38:05;5.47;;;4.90;;
2602;SDS011;1311;47.966;7.958;2022-07-29T04:40:32;6.63;;;5.43;;
2602;SDS011;1311;47.966;7.958;2022-07-29T04:42:59;5.50;;;5.00;;
2602;SDS011;1311;47.966;7.958;2022-07-29T04:45:26;7.43;;;5.00;;
2602;SDS011;1311;47.966;7.958;2022-07-29T04:47:54;5.73;;;5.23;;
2602;SDS011;1311;47.966;7.958;2022-07-29T04:50:22;5.80;;;5.20;;
2602;SDS011;1311;47.966;7.958;2022-07-29T04:52:48;6.30;;;5.70;;
2602;SDS011;1311;47.966;7.958;2022-07-29T04:55:15;6.00;;;5.50;;
2602;SDS011;1311;47.966;7.958;2022-07-29T04:57:42;7.67;;;5.50;;
2602;SDS011;1311;47.966;7.958;2022-07-29T05:00:09;6.13;;;5.00;;
2602;SDS011;1311;47.966;7.958;2022-07-29T05:02:36;5.20;;;4.53;;
2602;SDS011;1311;47.966;7.958;2022-07-29T05:05:05;5.63;;;5.10;;
2602;SDS011;1311;47.966;7.958;2022-07-29T05:07:32;6.03;;;5.53;;
2602;SDS011;1311;47.966;7.958;2022-07-29T05:09:59;5.63;;;5.13;;
2602;SDS011;1311;47.966;7.958;2022-07-29T05:12:25;4.57;;;4.27;;
2602;SDS011;1311;47.966;7.958;2022-07-29T05:14:52;6.20;;;5.60;;
2602;SDS011;1311;47.966;7.958;2022-07-29T05:17:20;6.17;;;5.10;;
2602;SDS011;1311;47.966;7.958;2022-07-29T05:19:46;5.80;;;5.20;;
2602;SDS011;1311;47.966;7.958;2022-07-29T05:22:16;5.37;;;4.87;;
2602;SDS011;1311;47.966;7.958;2022-07-29T05:24:43;7.67;;;5.73;;
2602;SDS011;1311;47.966;7.958;2022-07-29T05:27:10;5.87;;;4.83;;
2602;SDS011;1311;47.966;7.958;2022-07-29T05:29:37;5.73;;;5.23;;
2602;SDS011;1311;47.966;7.958;2022-07-29T05:32:04;5.97;;;5.47;;
2602;SDS011;1311;47.966;7.958;2022-07-29T05:34:31;7.53;;;4.90;;
2602;SDS011;1311;47.966;7.958;2022-07-29T05:36:58;6.10;;;5.50;;
2602;SDS011;1311;47.966;7.958;2022-07-29T05:39:26;5.23;;;4.83;;
2602;SDS011;1311;47.966;7.958;2022-07-29T05:41:53;6.23;;;5.30;;
2602;SDS011;1311;47.966;7.958;2022-07-29T05:44:19;7.60;;;4.80;;
2602;SDS011;1311;47.966;7.958;2022-07-29T05:46:46;5.80;;;5.30;;
2602;SDS011;1311;47.966;7.958;2022-07-29T05:49:13;5.60;;;5.10;;
2602;SDS011;1311;47.966;7.958;2022-07-29T05:51:40;5.43;;;4.90;;
2602;SDS011;1311;47.966;7.958;2022-07-29T05:54:06;5.53;;;5.03;;
2602;SDS011;1311;47.966;7.958;2022-07-29T05:56:35;5.53;;;5.03;;
2602;SDS011;1311;47.966;7.958;2022-07-29T05:59:02;5.83;;;5.33;;
2602;SDS011;1311;47.966;7.958;2022-07-29T06:01:28;5.83;;;5.43;;
2602;SDS011;1311;47.966;7.958;2022-07-29T06:03:56;5.70;;;5.20;;
2602;SDS011;1311;47.966;7.958;2022-07-29T06:06:23;5.40;;;4.87;;
2602;SDS011;1311;47.966;7.958;2022-07-29T06:08:50;5.33;;;4.90;;
2602;SDS011;1311;47.966;7.958;2022-07-29T06:11:16;5.30;;;4.83;;
2602;SDS011;1311;47.966;7.958;2022-07-29T06:13:44;5.50;;;5.10;;
2602;SDS011;1311;47.966;7.958;2022-07-29T06:16:11;5.53;;;4.80;;
2602;SDS011;1311;47.966;7.958;2022-07-29T06:18:38;5.67;;;4.90;;
2602;SDS011;1311;47.966;7.958;2022-07-29T06:21:07;6.20;;;5.03;;
2602;SDS011;1311;47.966;7.958;2022-07-29T06:23:34;5.50;;;5.00;;
2602;SDS011;1311;47.966;7.958;2022-07-29T06:26:01;5.10;;;4.70;;
2602;SDS011;1311;47.966;7.958;2022-07-29T06:28:28;4.90;;;4.40;;
2602;SDS011;1311;47.966;7.958;2022-07-29T06:30:56;4.90;;;4.60;;
2602;SDS011;1311;47.966;7.958;2022-07-29T06:33:23;4.93;;;4.40;;
2602;SDS011;1311;47.966;7.958;2022-07-29T06:35:50;6.07;;;5.57;;
2602;SDS011;1311;47.966;7.958;2022-07-29T06:38:17;6.20;;;5.70;;
2602;SDS011;1311;47.966;7.958;2022-07-29T06:40:44;6.73;;;6.07;;
2602;SDS011;1311;47.966;7.958;2022-07-29T06:43:27;5.50;;;5.00;;
2602;SDS011;1311;47.966;7.958;2022-07-29T06:45:58;5.53;;;4.67;;
2602;SDS011;1311;47.966;7.958;2022-07-29T06:48:26;4.53;;;4.23;;
2602;SDS011;1311;47.966;7.958;2022-07-29T06:50:54;4.70;;;4.23;;
2602;SDS011;1311;47.966;7.958;2022-07-29T06:53:21;4.87;;;4.47;;
2602;SDS011;1311;47.966;7.958;2022-07-29T06:55:47;5.00;;;4.60;;
2602;SDS011;1311;47.966;7.958;2022-07-29T06:58:14;4.73;;;4.30;;
2602;SDS011;1311;47.966;7.958;2022-07-29T07:00:45;4.60;;;4.03;;
2602;SDS011;1311;47.966;7.958;2022-07-29T07:03:13;5.10;;;4.40;;
2602;SDS011;1311;47.966;7.958;2022-07-29T07:05:41;5.07;;;3.80;;
2602;SDS011;1311;47.966;7.958;2022-07-29T07:08:08;4.30;;;4.00;;
2602;SDS011;1311;47.966;7.958;2022-07-29T07:10:35;3.67;;;3.37;;
2602;SDS011;1311;47.966;7.958;2022-07-29T07:13:02;4.63;;;4.07;;
2602;SDS011;1311;47.966;7.958;2022-07-29T07:15:29;4.27;;;3.97;;
2602;SDS011;1311;47.966;7.958;2022-07-29T07:17:56;4.70;;;4.30;;
2602;SDS011;1311;47.966;7.958;2022-07-29T07:20:25;5.17;;;4.77;;
2602;SDS011;1311;47.966;7.958;2022-07-29T07:22:52;5.03;;;4.63;;
2602;SDS011;1311;47.966;7.958;2022-07-29T07:25:18;4.43;;;4.13;;
2602;SDS011;1311;47.966;7.958;2022-07-29T07:27:45;5.00;;;4.27;;
2602;SDS011;1311;47.966;7.958;2022-07-29T07:30:12;6.10;;;5.50;;
2602;SDS011;1311;47.966;7.958;2022-07-29T07:32:39;8.00;;;5.27;;
2602;SDS011;1311;47.966;7.958;2022-07-29T07:35:06;5.30;;;4.80;;
2602;SDS011;1311;47.966;7.958;2022-07-29T07:37:36;5.80;;;5.30;;
2602;SDS011;1311;47.966;7.958;2022-07-29T07:40:04;5.70;;;5.20;;
2602;SDS011;1311;47.966;7.958;2022-07-29T07:42:31;9.10;;;5.43;;
2602;SDS011;1311;47.966;7.958;2022-07-29T07:44:58;6.07;;;5.17;;
2602;SDS011;1311;47.966;7.958;2022-07-29T07:47:25;5.63;;;5.13;;
2602;SDS011;1311;47.966;7.958;2022-07-29T07:49:52;6.20;;;4.47;;
2602;SDS011;1311;47.966;7.958;2022-07-29T07:52:20;5.97;;;5.40;;
2602;SDS011;1311;47.966;7.958;2022-07-29T07:54:49;4.60;;;4.30;;
2602;SDS011;1311;47.966;7.958;2022-07-29T07:57:16;6.30;;;5.70;;
2602;SDS011;1311;47.966;7.958;2022-07-29T07:59:43;5.80;;;5.30;;
2602;SDS011;1311;47.966;7.958;2022-07-29T08:02:10;7.73;;;5.70;;
2602;SDS011;1311;47.966;7.958;2022-07-29T08:04:37;6.10;;;5.50;;
2602;SDS011;1311;47.966;7.958;2022-07-29T08:07:05;5.53;;;5.03;;
2602;SDS011;1311;47.966;7.958;2022-07-29T08:09:33;4.60;;;4.30;;
2602;SDS011;1311;47.966;7.958;2022-07-29T08:12:02;6.40;;;4.83;;
2602;SDS011;1311;47.966;7.958;2022-07-29T08:14:30;6.53;;;5.20;;
2602;SDS011;1311;47.966;7.958;2022-07-29T08:16:57;6.63;;;4.90;;
2602;SDS011;1311;47.966;7.958;2022-07-29T08:19:25;5.47;;;5.00;;
2602;SDS011;1311;47.966;7.958;2022-07-29T08:21:52;5.67;;;4.90;;
2602;SDS011;1311;47.966;7.958;2022-07-29T08:24:19;5.40;;;4.70;;
2602;SDS011;1311;47.966;7.958;2022-07-29T08:27:05;5.83;;;5.20;;
2602;SDS011;1311;47.966;7.958;2022-07-29T08:29:32;5.90;;;5.17;;
2602;SDS011;1311;47.966;7.958;2022-07-29T08:31:59;9.23;;;5.30;;
2602;SDS011;1311;47.966;7.958;2022-07-29T08:34:28;6.23;;;5.63;;
2602;SDS011;1311;47.966;7.958;2022-07-29T08:36:55;7.73;;;5.53;;
2602;SDS011;1311;47.966;7.958;2022-07-29T08:39:22;5.73;;;5.27;;
2602;SDS011;1311;47.966;7.958;2022-07-29T08:41:49;5.87;;;5.30;;
2602;SDS011;1311;47.966;7.958;2022-07-29T08:44:18;5.63;;;5.13;;
2602;SDS011;1311;47.966;7.958;2022-07-29T08:46:46;6.90;;;6.23;;
2602;SDS011;1311;47.966;7.958;2022-07-29T08:49:14;5.27;;;4.70;;
2602;SDS011;1311;47.966;7.958;2022-07-29T08:51:41;5.43;;;4.60;;
2602;SDS011;1311;47.966;7.958;2022-07-29T08:54:09;5.43;;;4.90;;
2602;SDS011;1311;47.966;7.958;2022-07-29T08:56:36;5.10;;;4.30;;
2602;SDS011;1311;47.966;7.958;2022-07-29T08:59:06;4.97;;;4.57;;
2602;SDS011;1311;47.966;7.958;2022-07-29T09:01:37;7.00;;;5.60;;
2602;SDS011;1311;47.966;7.958;2022-07-29T09:04:05;6.40;;;4.90;;
2602;SDS011;1311;47.966;7.958;2022-07-29T09:06:37;5.23;;;4.63;;
2602;SDS011;1311;47.966;7.958;2022-07-29T09:09:08;4.93;;;4.40;;
2602;SDS011;1311;47.966;7.958;2022-07-29T09:11:35;4.60;;;4.23;;
2602;SDS011;1311;47.966;7.958;2022-07-29T09:14:02;4.70;;;4.30;;
2602;SDS011;1311;47.966;7.958;2022-07-29T09:19:24;4.73;;;4.33;;
2602;SDS011;1311;47.966;7.958;2022-07-29T09:21:52;4.40;;;4.00;;
2602;SDS011;1311;47.966;7.958;2022-07-29T09:27:19;7.73;;;4.67;;
2602;SDS011;1311;47.966;7.958;2022-07-29T09:29:47;5.13;;;4.40;;
2602;SDS011;1311;47.966;7.958;2022-07-29T09:32:22;4.73;;;4.17;;
2602;SDS011;1311;47.966;7.958;2022-07-29T09:34:49;4.60;;;4.30;;
2602;SDS011;1311;47.966;7.958;2022-07-29T09:37:25;4.33;;;3.93;;
2602;SDS011;1311;47.966;7.958;2022-07-29T09:39:52;4.30;;;4.00;;
2602;SDS011;1311;47.966;7.958;2022-07-29T09:42:27;4.83;;;4.07;;
2602;SDS011;1311;47.966;7.958;2022-07-29T09:44:54;4.93;;;4.53;;
2602;SDS011;1311;47.966;7.958;2022-07-29T09:47:22;5.73;;;4.43;;
2602;SDS011;1311;47.966;7.958;2022-07-29T09:50:07;5.00;;;4.50;;
2602;SDS011;1311;47.966;7.958;2022-07-29T09:52:41;4.50;;;4.10;;
2602;SDS011;1311;47.966;7.958;2022-07-29T09:55:11;4.17;;;3.87;;
2602;SDS011;1311;47.966;7.958;2022-07-29T09:57:39;4.53;;;4.00;;
2602;SDS011;1311;47.966;7.958;2022-07-29T10:00:06;5.50;;;4.47;;
2602;SDS011;1311;47.966;7.958;2022-07-29T10:02:37;5.60;;;4.90;;
2602;SDS011;1311;47.966;7.958;2022-07-29T10:05:05;4.93;;;4.50;;
2602;SDS011;1311;47.966;7.958;2022-07-29T10:07:45;6.03;;;4.57;;
2602;SDS011;1311;47.966;7.958;2022-07-29T10:10:18;5.70;;;4.73;;
2602;SDS011;1311;47.966;7.958;2022-07-29T10:12:50;4.57;;;4.10;;
2602;SDS011;1311;47.966;7.958;2022-07-29T10:15:20;4.53;;;4.10;;
2602;SDS011;1311;47.966;7.958;2022-07-29T10:17:50;4.53;;;4.13;;
2602;SDS011;1311;47.966;7.958;2022-07-29T10:20:17;4.60;;;4.20;;
2602;SDS011;1311;47.966;7.958;2022-07-29T10:22:44;6.47;;;4.73;;
2602;SDS011;1311;47.966;7.958;2022-07-29T10:25:12;4.40;;;4.00;;
2602;SDS011;1311;47.966;7.958;2022-07-29T10:27:40;6.70;;;4.47;;
2602;SDS011;1311;47.966;7.958;2022-07-29T10:30:07;3.80;;;3.50;;
2602;SDS011;1311;47.966;7.958;2022-07-29T10:32:39;4.23;;;3.87;;
2602;SDS011;1311;47.966;7.958;2022-07-29T10:35:35;4.77;;;4.00;;
2602;SDS011;1311;47.966;7.958;2022-07-29T10:38:14;3.83;;;3.53;;
2602;SDS011;1311;47.966;7.958;2022-07-29T10:40:57;3.70;;;3.40;;
2602;SDS011;1311;47.966;7.958;2022-07-29T10:43:54;4.27;;;3.87;;
2602;SDS011;1311;47.966;7.958;2022-07-29T10:46:24;3.80;;;3.50;;
2602;SDS011;1311;47.966;7.958;2022-07-29T10:49:04;6.97;;;4.00;;
2602;SDS011;1311;47.966;7.958;2022-07-29T10:57:16;6.50;;;3.90;;
2602;SDS011;1311;47.966;7.958;2022-07-29T10:59:46;4.00;;;3.50;;
2602;SDS011;1311;47.966;7.958;2022-07-29T11:05:16;9.57;;;3.50;;
2602;SDS011;1311;47.966;7.958;2022-07-29T11:10:48;5.60;;;3.70;;
2602;SDS011;1311;47.966;7.958;2022-07-29T11:16:16;6.90;;;4.07;;
2602;SDS011;1311;47.966;7.958;2022-07-29T11:21:45;3.93;;;3.53;;
2602;SDS011;1311;47.966;7.958;2022-07-29T11:24:16;4.33;;;4.03;;
2602;SDS011;1311;47.966;7.958;2022-07-29T11:26:46;9.50;;;4.20;;
2602;SDS011;1311;47.966;7.958;2022-07-29T11:29:32;4.27;;;3.97;;
2602;SDS011;1311;47.966;7.958;2022-07-29T11:32:10;4.70;;;3.90;;
2602;SDS011;1311;47.966;7.958;2022-07-29T11:34:39;3.97;;;3.60;;
2602;SDS011;1311;47.966;7.958;2022-07-29T11:40:09;4.20;;;3.90;;
2602;SDS011;1311;47.966;7.958;2022-07-29T11:42:42;3.93;;;3.63;;
2602;SDS011;1311;47.966;7.958;2022-07-29T11:45:12;6.00;;;3.80;;
2602;SDS011;1311;47.966;7.958;2022-07-29T11:47:46;6.20;;;4.20;;
2602;SDS011;1311;47.966;7.958;2022-07-29T11:50:16;5.10;;;3.97;;
2602;SDS011;1311;47.966;7.958;2022-07-29T11:52:52;5.70;;;4.20;;
2602;SDS011;1311;47.966;7.958;2022-07-29T11:55:21;4.93;;;3.40;;
2602;SDS011;1311;47.966;7.958;2022-07-29T11:57:50;4.43;;;4.13;;
2602;SDS011;1311;47.966;7.958;2022-07-29T12:00:21;5.07;;;4.20;;
2602;SDS011;1311;47.966;7.958;2022-07-29T12:02:50;3.87;;;3.47;;
2602;SDS011;1311;47.966;7.958;2022-07-29T12:05:17;5.13;;;4.10;;
2602;SDS011;1311;47.966;7.958;2022-07-29T12:07:44;4.00;;;3.70;;
2602;SDS011;1311;47.966;7.958;2022-07-29T12:10:12;4.00;;;3.70;;
2602;SDS011;1311;47.966;7.958;2022-07-29T12:12:40;3.90;;;3.20;;
2602;SDS011;1311;47.966;7.958;2022-07-29T12:15:10;6.80;;;4.03;;
2602;SDS011;1311;47.966;7.958;2022-07-29T12:17:38;4.03;;;3.73;;
2602;SDS011;1311;47.966;7.958;2022-07-29T12:20:06;4.07;;;3.70;;
2602;SDS011;1311;47.966;7.958;2022-07-29T12:22:34;7.93;;;3.70;;
2602;SDS011;1311;47.966;7.958;2022-07-29T12:25:04;3.70;;;3.40;;
2602;SDS011;1311;47.966;7.958;2022-07-29T12:27:34;5.47;;;3.97;;
2602;SDS011;1311;47.966;7.958;2022-07-29T12:30:04;4.47;;;4.07;;
2602;SDS011;1311;47.966;7.958;2022-07-29T12:32:33;4.20;;;3.90;;
2602;SDS011;1311;47.966;7.958;2022-07-29T12:35:04;4.13;;;3.70;;
2602;SDS011;1311;47.966;7.958;2022-07-29T12:37:32;4.60;;;3.90;;
2602;SDS011;1311;47.966;7.958;2022-07-29T12:40:00;4.97;;;4.33;;
2602;SDS011;1311;47.966;7.958;2022-07-29T12:42:27;3.87;;;3.57;;
2602;SDS011;1311;47.966;7.958;2022-07-29T12:44:54;4.00;;;3.47;;
2602;SDS011;1311;47.966;7.958;2022-07-29T12:47:22;4.37;;;3.93;;
2602;SDS011;1311;47.966;7.958;2022-07-29T12:49:50;4.10;;;3.70;;
2602;SDS011;1311;47.966;7.958;2022-07-29T12:52:33;4.57;;;4.10;;
2602;SDS011;1311;47.966;7.958;2022-07-29T12:55:00;6.60;;;3.70;;
2602;SDS011;1311;47.966;7.958;2022-07-29T12:57:28;4.30;;;4.00;;
2602;SDS011;1311;47.966;7.958;2022-07-29T13:00:00;4.80;;;4.40;;
2602;SDS011;1311;47.966;7.958;2022-07-29T13:02:31;3.67;;;3.33;;
2602;SDS011;1311;47.966;7.958;2022-07-29T13:04:59;3.43;;;3.23;;
2602;SDS011;1311;47.966;7.958;2022-07-29T13:07:30;4.17;;;3.87;;
2602;SDS011;1311;47.966;7.958;2022-07-29T13:10:10;4.00;;;3.57;;
2602;SDS011;1311;47.966;7.958;2022-07-29T13:12:39;4.30;;;3.90;;
2602;SDS011;1311;47.966;7.958;2022-07-29T13:15:26;4.10;;;3.73;;
2602;SDS011;1311;47.966;7.958;2022-07-29T13:17:54;3.83;;;3.43;;
2602;SDS011;1311;47.966;7.958;2022-07-29T13:20:23;5.07;;;3.63;;
2602;SDS011;1311;47.966;7.958;2022-07-29T13:22:52;3.93;;;3.47;;
2602;SDS011;1311;47.966;7.958;2022-07-29T13:25:23;4.00;;;3.70;;
2602;SDS011;1311;47.966;7.958;2022-07-29T13:27:51;3.70;;;3.47;;
2602;SDS011;1311;47.966;7.958;2022-07-29T13:30:19;3.63;;;3.33;;
2602;SDS011;1311;47.966;7.958;2022-07-29T13:32:47;5.87;;;3.43;;
2602;SDS011;1311;47.966;7.958;2022-07-29T13:35:15;3.60;;;3.30;;
2602;SDS011;1311;47.966;7.958;2022-07-29T13:37:42;3.63;;;3.33;;
2602;SDS011;1311;47.966;7.958;2022-07-29T13:40:10;3.60;;;3.30;;
2602;SDS011;1311;47.966;7.958;2022-07-29T13:42:38;3.40;;;2.73;;
2602;SDS011;1311;47.966;7.958;2022-07-29T13:45:06;3.90;;;3.30;;
2602;SDS011;1311;47.966;7.958;2022-07-29T13:47:34;3.60;;;3.30;;
2602;SDS011;1311;47.966;7.958;2022-07-29T13:50:01;3.53;;;3.17;;
2602;SDS011;1311;47.966;7.958;2022-07-29T13:52:31;3.33;;;3.03;;
2602;SDS011;1311;47.966;7.958;2022-07-29T13:54:58;3.73;;;2.87;;
2602;SDS011;1311;47.966;7.958;2022-07-29T13:57:25;3.60;;;3.20;;
2602;SDS011;1311;47.966;7.958;2022-07-29T13:59:53;4.40;;;3.07;;
2602;SDS011;1311;47.966;7.958;2022-07-29T14:02:20;3.50;;;3.20;;
2602;SDS011;1311;47.966;7.958;2022-07-29T14:04:47;3.47;;;3.17;;
2602;SDS011;1311;47.966;7.958;2022-07-29T14:07:14;5.90;;;3.10;;
2602;SDS011;1311;47.966;7.958;2022-07-29T14:09:42;4.67;;;3.07;;
2602;SDS011;1311;47.966;7.958;2022-07-29T14:12:09;3.10;;;2.90;;
2602;SDS011;1311;47.966;7.958;2022-07-29T14:14:36;2.80;;;2.60;;
2602;SDS011;1311;47.966;7.958;2022-07-29T14:17:03;3.00;;;2.80;;
2602;SDS011;1311;47.966;7.958;2022-07-29T14:19:31;3.90;;;3.10;;
2602;SDS011;1311;47.966;7.958;2022-07-29T14:22:01;2.93;;;2.73;;
2602;SDS011;1311;47.966;7.958;2022-07-29T14:24:28;3.20;;;3.00;;
2602;SDS011;1311;47.966;7.958;2022-07-29T14:26:56;4.00;;;3.33;;
2602;SDS011;1311;47.966;7.958;2022-07-29T14:29:23;3.30;;;2.90;;
2602;SDS011;1311;47.966;7.958;2022-07-29T14:31:50;4.57;;;3.30;;
2602;SDS011;1311;47.966;7.958;2022-07-29T14:34:18;3.93;;;3.50;;
2602;SDS011;1311;47.966;7.958;2022-07-29T14:36:44;3.03;;;2.73;;
2602;SDS011;1311;47.966;7.958;2022-07-29T14:39:12;3.10;;;2.90;;
2602;SDS011;1311;47.966;7.958;2022-07-29T14:41:40;4.60;;;3.13;;
2602;SDS011;1311;47.966;7.958;2022-07-29T14:44:09;4.57;;;3.00;;
2602;SDS011;1311;47.966;7.958;2022-07-29T14:46:36;2.90;;;2.57;;
2602;SDS011;1311;47.966;7.958;2022-07-29T14:49:02;3.53;;;3.23;;
2602;SDS011;1311;47.966;7.958;2022-07-29T14:51:30;2.97;;;2.73;;
2602;SDS011;1311;47.966;7.958;2022-07-29T14:53:57;3.30;;;2.80;;
2602;SDS011;1311;47.966;7.958;2022-07-29T14:56:24;4.30;;;2.77;;
2602;SDS011;1311;47.966;7.958;2022-07-29T14:58:53;2.67;;;2.50;;
2602;SDS011;1311;47.966;7.958;2022-07-29T15:01:21;2.80;;;2.60;;
2602;SDS011;1311;47.966;7.958;2022-07-29T15:03:48;2.80;;;2.60;;
2602;SDS011;1311;47.966;7.958;2022-07-29T15:06:15;3.17;;;2.87;;
2602;SDS011;1311;47.966;7.958;2022-07-29T15:08:42;3.53;;;3.10;;
2602;SDS011;1311;47.966;7.958;2022-07-29T15:11:09;3.10;;;2.80;;
2602;SDS011;1311;47.966;7.958;2022-07-29T15:13:35;3.33;;;2.90;;
2602;SDS011;1311;47.966;7.958;2022-07-29T15:16:04;2.73;;;2.53;;
2602;SDS011;1311;47.966;7.958;2022-07-29T15:18:32;3.23;;;2.50;;
2602;SDS011;1311;47.966;7.958;2022-07-29T15:20:59;11.50;;;3.13;;
2602;SDS011;1311;47.966;7.958;2022-07-29T15:23:28;3.60;;;2.70;;
2602;SDS011;1311;47.966;7.958;2022-07-29T15:25:55;2.73;;;2.53;;
2602;SDS011;1311;47.966;7.958;2022-07-29T15:28:22;4.90;;;3.00;;
2602;SDS011;1311;47.966;7.958;2022-07-29T15:30:48;3.93;;;2.37;;
2602;SDS011;1311;47.966;7.958;2022-07-29T15:33:15;3.20;;;2.90;;
2602;SDS011;1311;47.966;7.958;2022-07-29T15:35:44;2.83;;;2.63;;
2602;SDS011;1311;47.966;7.958;2022-07-29T15:38:10;2.50;;;2.30;;
2602;SDS011;1311;47.966;7.958;2022-07-29T15:40:37;3.07;;;2.80;;
2602;SDS011;1311;47.966;7.958;2022-07-29T15:43:06;2.80;;;2.60;;
2602;SDS011;1311;47.966;7.958;2022-07-29T15:45:36;3.40;;;2.57;;
2602;SDS011;1311;47.966;7.958;2022-07-29T15:48:04;2.83;;;2.63;;
2602;SDS011;1311;47.966;7.958;2022-07-29T15:50:31;2.57;;;2.37;;
2602;SDS011;1311;47.966;7.958;2022-07-29T15:52:59;2.77;;;2.57;;
2602;SDS011;1311;47.966;7.958;2022-07-29T15:55:26;2.63;;;2.20;;